sensor_id;sensor_type;location;lat;lon;timestamp;P1;durP1;ratioP1;P2;durP2;ratioP2
77531;SDS011;70100;44.486;0.266;2023-09-12T00:03:49;6.97;;;3.10;;
77531;SDS011;70100;44.486;0.266;2023-09-12T00:09:21;8.27;;;3.93;;
77531;SDS011;70100;44.486;0.266;2023-09-12T00:14:54;6.73;;;3.60;;
77531;SDS011;70100;44.486;0.266;2023-09-12T00:20:27;7.40;;;4.53;;
77531;SDS011;70100;44.486;0.266;2023-09-12T00:26:00;5.10;;;3.67;;
77531;SDS011;70100;44.486;0.266;2023-09-12T00:31:32;7.47;;;3.53;;
77531;SDS011;70100;44.486;0.266;2023-09-12T00:37:05;7.53;;;3.80;;
77531;SDS011;70100;44.486;0.266;2023-09-12T00:42:38;6.63;;;3.97;;
77531;SDS011;70100;44.486;0.266;2023-09-12T00:48:11;5.93;;;4.50;;
77531;SDS011;70100;44.486;0.266;2023-09-12T00:53:44;10.43;;;4.87;;
77531;SDS011;70100;44.486;0.266;2023-09-12T00:59:17;8.70;;;3.80;;
77531;SDS011;70100;44.486;0.266;2023-09-12T01:04:50;6.33;;;3.43;;
77531;SDS011;70100;44.486;0.266;2023-09-12T01:10:22;6.63;;;4.10;;
77531;SDS011;70100;44.486;0.266;2023-09-12T01:15:56;7.40;;;3.60;;
77531;SDS011;70100;44.486;0.266;2023-09-12T01:21:36;6.47;;;3.60;;
77531;SDS011;70100;44.486;0.266;2023-09-12T01:32:35;6.50;;;3.50;;
77531;SDS011;70100;44.486;0.266;2023-09-12T01:38:08;6.67;;;4.37;;
77531;SDS011;70100;44.486;0.266;2023-09-12T01:43:41;5.60;;;3.37;;
77531;SDS011;70100;44.486;0.266;2023-09-12T01:49:13;9.70;;;4.20;;
77531;SDS011;70100;44.486;0.266;2023-09-12T01:54:46;9.33;;;4.83;;
77531;SDS011;70100;44.486;0.266;2023-09-12T02:00:18;8.33;;;4.50;;
77531;SDS011;70100;44.486;0.266;2023-09-12T02:05:51;10.37;;;5.60;;
77531;SDS011;70100;44.486;0.266;2023-09-12T02:11:23;-1.00;;;-1.00;;
77531;SDS011;70100;44.486;0.266;2023-09-12T02:16:57;10.03;;;6.03;;
77531;SDS011;70100;44.486;0.266;2023-09-12T02:22:30;10.27;;;6.20;;
77531;SDS011;70100;44.486;0.266;2023-09-12T02:28:03;9.10;;;5.37;;
77531;SDS011;70100;44.486;0.266;2023-09-12T02:33:37;12.77;;;6.10;;
77531;SDS011;70100;44.486;0.266;2023-09-12T02:39:09;13.93;;;6.43;;
77531;SDS011;70100;44.486;0.266;2023-09-12T02:44:42;11.63;;;7.03;;
77531;SDS011;70100;44.486;0.266;2023-09-12T02:50:16;10.50;;;6.40;;
77531;SDS011;70100;44.486;0.266;2023-09-12T02:55:48;10.90;;;6.60;;
77531;SDS011;70100;44.486;0.266;2023-09-12T03:01:21;11.57;;;6.87;;
77531;SDS011;70100;44.486;0.266;2023-09-12T04:07:55;18.00;;;10.77;;
77531;SDS011;70100;44.486;0.266;2023-09-12T04:13:28;17.00;;;10.83;;
77531;SDS011;70100;44.486;0.266;2023-09-12T04:19:01;21.13;;;10.80;;
77531;SDS011;70100;44.486;0.266;2023-09-12T04:24:33;22.27;;;10.00;;
77531;SDS011;70100;44.486;0.266;2023-09-12T04:30:07;21.17;;;9.97;;
77531;SDS011;70100;44.486;0.266;2023-09-12T04:35:39;15.83;;;9.10;;
77531;SDS011;70100;44.486;0.266;2023-09-12T04:41:12;19.83;;;11.23;;
77531;SDS011;70100;44.486;0.266;2023-09-12T04:46:43;19.30;;;10.10;;
77531;SDS011;70100;44.486;0.266;2023-09-12T04:52:15;20.23;;;10.50;;
77531;SDS011;70100;44.486;0.266;2023-09-12T04:57:47;23.17;;;11.80;;
77531;SDS011;70100;44.486;0.266;2023-09-12T05:03:20;33.43;;;14.57;;
77531;SDS011;70100;44.486;0.266;2023-09-12T05:08:53;50.60;;;18.27;;
77531;SDS011;70100;44.486;0.266;2023-09-12T05:14:26;100.60;;;18.50;;
77531;SDS011;70100;44.486;0.266;2023-09-12T05:19:58;46.20;;;17.40;;
77531;SDS011;70100;44.486;0.266;2023-09-12T05:25:32;55.23;;;17.47;;
77531;SDS011;70100;44.486;0.266;2023-09-12T05:31:03;49.03;;;15.00;;
77531;SDS011;70100;44.486;0.266;2023-09-12T06:04:19;-1.00;;;-1.00;;
77531;SDS011;70100;44.486;0.266;2023-09-12T06:09:52;26.30;;;13.67;;
77531;SDS011;70100;44.486;0.266;2023-09-12T06:15:24;23.33;;;13.90;;
77531;SDS011;70100;44.486;0.266;2023-09-12T06:20:56;-1.00;;;-1.00;;
77531;SDS011;70100;44.486;0.266;2023-09-12T06:26:29;26.97;;;15.33;;
77531;SDS011;70100;44.486;0.266;2023-09-12T06:32:02;42.40;;;21.60;;
77531;SDS011;70100;44.486;0.266;2023-09-12T06:37:34;32.63;;;19.30;;
77531;SDS011;70100;44.486;0.266;2023-09-12T06:43:08;29.80;;;15.80;;
77531;SDS011;70100;44.486;0.266;2023-09-12T06:48:42;28.20;;;15.03;;
77531;SDS011;70100;44.486;0.266;2023-09-12T06:54:16;29.00;;;13.97;;
77531;SDS011;70100;44.486;0.266;2023-09-12T06:59:48;32.90;;;16.27;;
77531;SDS011;70100;44.486;0.266;2023-09-12T07:05:18;31.27;;;14.30;;
77531;SDS011;70100;44.486;0.266;2023-09-12T07:10:54;26.77;;;12.80;;
77531;SDS011;70100;44.486;0.266;2023-09-12T07:16:24;24.40;;;14.10;;
77531;SDS011;70100;44.486;0.266;2023-09-12T07:21:57;25.43;;;15.57;;
77531;SDS011;70100;44.486;0.266;2023-09-12T07:27:30;26.77;;;14.87;;
77531;SDS011;70100;44.486;0.266;2023-09-12T07:33:03;24.83;;;14.33;;
77531;SDS011;70100;44.486;0.266;2023-09-12T07:38:37;24.47;;;14.77;;
77531;SDS011;70100;44.486;0.266;2023-09-12T07:44:11;27.20;;;13.70;;
77531;SDS011;70100;44.486;0.266;2023-09-12T07:49:41;21.80;;;12.90;;
77531;SDS011;70100;44.486;0.266;2023-09-12T07:55:13;23.30;;;14.07;;
77531;SDS011;70100;44.486;0.266;2023-09-12T08:00:47;25.03;;;13.90;;
77531;SDS011;70100;44.486;0.266;2023-09-12T08:06:20;19.67;;;11.90;;
77531;SDS011;70100;44.486;0.266;2023-09-12T08:11:54;19.43;;;11.07;;
77531;SDS011;70100;44.486;0.266;2023-09-12T08:17:27;17.17;;;11.33;;
77531;SDS011;70100;44.486;0.266;2023-09-12T08:23:00;18.70;;;11.10;;
77531;SDS011;70100;44.486;0.266;2023-09-12T08:28:34;21.03;;;12.20;;
77531;SDS011;70100;44.486;0.266;2023-09-12T08:34:06;23.43;;;11.50;;
77531;SDS011;70100;44.486;0.266;2023-09-12T08:39:40;18.27;;;10.50;;
77531;SDS011;70100;44.486;0.266;2023-09-12T08:45:12;-1.00;;;-1.00;;
77531;SDS011;70100;44.486;0.266;2023-09-12T08:50:44;15.07;;;10.77;;
77531;SDS011;70100;44.486;0.266;2023-09-12T08:56:16;17.50;;;9.97;;
77531;SDS011;70100;44.486;0.266;2023-09-12T09:01:52;15.50;;;9.40;;
77531;SDS011;70100;44.486;0.266;2023-09-12T09:07:23;15.00;;;11.23;;
77531;SDS011;70100;44.486;0.266;2023-09-12T09:12:56;16.90;;;10.83;;
77531;SDS011;70100;44.486;0.266;2023-09-12T09:18:29;16.00;;;10.37;;
77531;SDS011;70100;44.486;0.266;2023-09-12T09:24:04;13.13;;;9.67;;
77531;SDS011;70100;44.486;0.266;2023-09-12T09:35:10;15.37;;;10.93;;
77531;SDS011;70100;44.486;0.266;2023-09-12T09:40:41;14.97;;;9.23;;
77531;SDS011;70100;44.486;0.266;2023-09-12T09:46:15;17.27;;;9.67;;
77531;SDS011;70100;44.486;0.266;2023-09-12T09:51:47;12.30;;;9.33;;
77531;SDS011;70100;44.486;0.266;2023-09-12T09:57:21;11.63;;;8.27;;
77531;SDS011;70100;44.486;0.266;2023-09-12T10:36:11;11.20;;;7.97;;
77531;SDS011;70100;44.486;0.266;2023-09-12T10:41:43;15.53;;;7.90;;
77531;SDS011;70100;44.486;0.266;2023-09-12T10:47:18;13.33;;;8.30;;
77531;SDS011;70100;44.486;0.266;2023-09-12T10:52:50;11.30;;;8.33;;
77531;SDS011;70100;44.486;0.266;2023-09-12T10:58:24;12.07;;;8.87;;
77531;SDS011;70100;44.486;0.266;2023-09-12T11:37:12;13.07;;;8.00;;
77531;SDS011;70100;44.486;0.266;2023-09-12T11:42:50;10.17;;;8.30;;
77531;SDS011;70100;44.486;0.266;2023-09-12T11:48:20;10.80;;;9.13;;
77531;SDS011;70100;44.486;0.266;2023-09-12T11:53:53;12.33;;;8.27;;
77531;SDS011;70100;44.486;0.266;2023-09-12T11:59:25;9.93;;;8.37;;
77531;SDS011;70100;44.486;0.266;2023-09-12T12:05:00;9.13;;;7.77;;
77531;SDS011;70100;44.486;0.266;2023-09-12T12:10:32;10.17;;;8.00;;
77531;SDS011;70100;44.486;0.266;2023-09-12T12:21:36;9.30;;;7.50;;
77531;SDS011;70100;44.486;0.266;2023-09-12T12:27:11;9.40;;;8.07;;
77531;SDS011;70100;44.486;0.266;2023-09-12T12:32:43;11.67;;;6.50;;
77531;SDS011;70100;44.486;0.266;2023-09-12T12:38:15;9.53;;;7.57;;
77531;SDS011;70100;44.486;0.266;2023-09-12T12:43:49;7.93;;;7.07;;
77531;SDS011;70100;44.486;0.266;2023-09-12T12:49:21;9.20;;;7.57;;
77531;SDS011;70100;44.486;0.266;2023-09-12T12:54:54;7.67;;;5.93;;
77531;SDS011;70100;44.486;0.266;2023-09-12T13:00:25;3.97;;;2.73;;
77531;SDS011;70100;44.486;0.266;2023-09-12T13:05:57;3.93;;;2.00;;
77531;SDS011;70100;44.486;0.266;2023-09-12T13:11:28;3.50;;;1.50;;
77531;SDS011;70100;44.486;0.266;2023-09-12T13:17:01;1.43;;;1.33;;
77531;SDS011;70100;44.486;0.266;2023-09-12T13:22:34;1.27;;;1.17;;
77531;SDS011;70100;44.486;0.266;2023-09-12T13:28:06;6.53;;;2.50;;
77531;SDS011;70100;44.486;0.266;2023-09-12T13:33:38;4.60;;;2.20;;
77531;SDS011;70100;44.486;0.266;2023-09-12T13:39:13;6.83;;;2.27;;
77531;SDS011;70100;44.486;0.266;2023-09-12T13:44:43;3.53;;;2.37;;
77531;SDS011;70100;44.486;0.266;2023-09-12T13:50:15;2.93;;;1.90;;
77531;SDS011;70100;44.486;0.266;2023-09-12T13:55:49;3.03;;;2.17;;
77531;SDS011;70100;44.486;0.266;2023-09-12T14:01:22;5.63;;;2.57;;
77531;SDS011;70100;44.486;0.266;2023-09-12T14:06:56;5.13;;;2.70;;
77531;SDS011;70100;44.486;0.266;2023-09-12T14:12:28;4.97;;;2.20;;
77531;SDS011;70100;44.486;0.266;2023-09-12T14:18:02;3.20;;;2.20;;
77531;SDS011;70100;44.486;0.266;2023-09-12T14:23:34;3.63;;;2.10;;
77531;SDS011;70100;44.486;0.266;2023-09-12T14:29:08;4.73;;;2.53;;
77531;SDS011;70100;44.486;0.266;2023-09-12T14:34:40;4.00;;;2.93;;
77531;SDS011;70100;44.486;0.266;2023-09-12T14:40:14;5.30;;;2.80;;
77531;SDS011;70100;44.486;0.266;2023-09-12T14:45:45;3.20;;;2.20;;
77531;SDS011;70100;44.486;0.266;2023-09-12T14:51:17;2.87;;;1.93;;
77531;SDS011;70100;44.486;0.266;2023-09-12T14:56:52;4.77;;;2.57;;
77531;SDS011;70100;44.486;0.266;2023-09-12T15:02:25;4.83;;;2.23;;
77531;SDS011;70100;44.486;0.266;2023-09-12T15:07:57;7.80;;;2.20;;
77531;SDS011;70100;44.486;0.266;2023-09-12T15:19:01;3.07;;;2.20;;
77531;SDS011;70100;44.486;0.266;2023-09-12T15:24:33;2.53;;;2.30;;
77531;SDS011;70100;44.486;0.266;2023-09-12T15:30:07;3.53;;;2.60;;
